KSNL/SNL METAR and TAF weather

Enter ICAO airport designator
Station Type Date Time Source
KSNL METAR 2021/09/25 02:55 UTC NOAA

KSNL 250255Z AUTO 18007KT 10SM CLR 20/05 A3003 RMK AO2 T01950050


Station Type Date Time Source
KSNL Decoded METAR 2021/09/25 02:55 UTC NOAA

Shawnee, Shawnee Municipal Airport, OK, United States (KSNL) 35-21-26N 096-56-34W
Sep 24, 2021 - 10:55 PM EDT / 2021.09.25 0255 UTC
Wind: from the S (180 degrees) at 8 MPH (7 KT):0
Visibility: 10 mile(s):0
Sky conditions: clear
Temperature: 67.1 F (19.5 C)
Dew Point: 41.0 F (5.0 C)
Relative Humidity: 38%
Pressure (altimeter): 30.03 in. Hg (1016 hPa)
ob: KSNL 250255Z AUTO 18007KT 10SM CLR 20/05 A3003 RMK AO2 T01950050
cycle: 3

Station Type Date Time Source
KSNL TAF UTC NOAA

Error!

Example: see airport list